createdAt,value
2019-01-06T00:00:20.069Z,2.00
2019-01-06T00:03:20.427Z,2.00
2019-01-06T00:06:16.538Z,2.00
2019-01-06T00:09:04.932Z,2.10
2019-01-06T00:12:06.184Z,2.10
2019-01-06T00:14:57.048Z,2.00
2019-01-06T00:17:47.026Z,2.10
2019-01-06T00:20:35.909Z,2.10
2019-01-06T00:23:25.607Z,2.10
2019-01-06T00:26:15.256Z,2.10
2019-01-06T00:29:19.843Z,2.10
2019-01-06T00:32:15.205Z,2.10
2019-01-06T00:35:11.328Z,2.10
2019-01-06T00:38:02.257Z,2.10
2019-01-06T00:40:50.617Z,2.10
2019-01-06T00:43:40.053Z,2.10
2019-01-06T00:46:29.845Z,2.10
2019-01-06T00:49:31.697Z,2.10
2019-01-06T00:52:20.374Z,2.10
2019-01-06T00:55:08.749Z,2.10
2019-01-06T00:57:57.106Z,2.10
2019-01-06T01:00:52.988Z,2.10
2019-01-06T01:03:38.133Z,2.10
2019-01-06T01:06:26.698Z,2.10
2019-01-06T01:09:57.612Z,2.10
2019-01-06T01:12:47.361Z,2.10
2019-01-06T01:15:45.573Z,2.10
2019-01-06T01:18:53.553Z,2.10
2019-01-06T01:21:55.276Z,2.10
2019-01-06T01:24:43.783Z,2.10
2019-01-06T01:27:36.430Z,2.10
2019-01-06T01:30:24.574Z,2.10
2019-01-06T01:33:16.836Z,2.10
2019-01-06T01:36:22.054Z,2.20
2019-01-06T01:39:12.113Z,2.20
2019-01-06T01:42:06.140Z,2.20
2019-01-06T01:44:54.919Z,2.20
2019-01-06T01:47:43.604Z,2.20
2019-01-06T01:50:31.464Z,2.20
2019-01-06T01:53:36.356Z,2.20
2019-01-06T01:56:24.473Z,2.20
2019-01-06T01:59:13.267Z,2.20
2019-01-06T02:02:15.272Z,2.20
2019-01-06T02:05:03.509Z,2.10
2019-01-06T02:07:59.477Z,2.20
2019-01-06T02:10:52.925Z,2.20
2019-01-06T02:13:41.304Z,2.20
2019-01-06T02:16:31.818Z,2.20
2019-01-06T02:19:30.384Z,2.20
2019-01-06T02:22:19.052Z,2.20
2019-01-06T02:25:23.694Z,2.20
2019-01-06T02:28:11.972Z,2.20
2019-01-06T02:31:13.705Z,2.20
2019-01-06T02:34:02.423Z,2.20
2019-01-06T02:36:50.730Z,2.20
2019-01-06T02:39:52.837Z,2.20
2019-01-06T02:42:49.112Z,2.20
2019-01-06T02:45:37.335Z,2.20
2019-01-06T02:48:43.730Z,2.20
2019-01-06T02:51:32.012Z,2.30
2019-01-06T02:54:21.688Z,2.30
2019-01-06T02:57:17.789Z,2.30
2019-01-06T03:00:19.795Z,2.30
2019-01-06T03:03:15.510Z,2.30
2019-01-06T03:06:17.805Z,2.30
2019-01-06T03:09:06.277Z,2.30
2019-01-06T03:12:09.032Z,2.30
2019-01-06T03:14:50.557Z,2.30
2019-01-06T03:17:40.341Z,2.30
2019-01-06T03:20:28.898Z,2.30
2019-01-06T03:23:21.898Z,2.30
2019-01-06T03:26:06.390Z,2.30
2019-01-06T03:28:59.173Z,2.30
2019-01-06T03:32:01.149Z,2.30
2019-01-06T03:35:00.232Z,2.30
2019-01-06T03:37:58.822Z,2.30
2019-01-06T03:41:03.409Z,2.40
2019-01-06T03:44:05.272Z,2.40
2019-01-06T03:47:01.446Z,2.40
2019-01-06T03:49:50.023Z,2.40
2019-01-06T03:52:42.520Z,2.40
2019-01-06T03:55:38.217Z,2.40
2019-01-06T03:58:25.782Z,2.40
2019-01-06T04:01:07.055Z,2.40
2019-01-06T04:04:06.469Z,2.40
2019-01-06T04:07:11.397Z,2.40
2019-01-06T04:10:03.941Z,2.40
2019-01-06T04:12:48.071Z,2.40
2019-01-06T04:15:36.190Z,2.40
2019-01-06T04:18:25.675Z,2.40
2019-01-06T04:21:15.265Z,2.40
2019-01-06T04:24:06.512Z,2.40
2019-01-06T04:27:07.629Z,2.40
2019-01-06T04:29:57.509Z,2.40
2019-01-06T04:32:46.262Z,2.40
2019-01-06T04:35:34.783Z,2.40
2019-01-06T04:38:30.660Z,2.40
2019-01-06T04:41:19.076Z,2.40
2019-01-06T04:44:08.450Z,2.40
2019-01-06T04:46:58.274Z,2.40
2019-01-06T04:49:46.891Z,2.40
2019-01-06T04:52:51.617Z,2.40
2019-01-06T04:55:39.668Z,2.40
2019-01-06T04:58:32.341Z,2.40
2019-01-06T05:01:20.510Z,2.40
2019-01-06T05:04:09.073Z,2.40
2019-01-06T05:06:59.188Z,2.40
2019-01-06T05:10:01.378Z,2.40
2019-01-06T05:12:47.841Z,2.40
2019-01-06T05:15:32.576Z,2.40
2019-01-06T05:18:28.756Z,2.40
2019-01-06T05:21:21.353Z,2.50
2019-01-06T05:24:11.797Z,2.50
2019-01-06T05:27:13.415Z,2.50
2019-01-06T05:30:18.387Z,2.50
2019-01-06T05:33:14.186Z,2.50
2019-01-06T05:36:02.408Z,2.50
2019-01-06T05:39:00.941Z,2.50
2019-01-06T05:42:10.652Z,2.50
2019-01-06T05:45:00.292Z,2.50
2019-01-06T05:47:55.767Z,2.50
2019-01-06T05:50:38.136Z,2.50
2019-01-06T05:53:26.391Z,2.50
2019-01-06T05:56:28.102Z,2.50
2019-01-06T05:59:14.500Z,2.50
2019-01-06T06:02:07.150Z,2.50
2019-01-06T06:04:56.679Z,2.50
2019-01-06T06:07:40.840Z,2.50
2019-01-06T06:10:29.583Z,2.50
2019-01-06T06:13:22.313Z,2.50
2019-01-06T06:16:15.212Z,2.50
2019-01-06T06:19:20.301Z,2.50
2019-01-06T06:22:08.549Z,2.50
2019-01-06T06:24:47.570Z,2.40
2019-01-06T06:27:43.326Z,2.40
2019-01-06T06:30:33.042Z,2.40
2019-01-06T06:33:25.649Z,2.50
2019-01-06T06:36:26.965Z,2.50
2019-01-06T06:39:18.473Z,2.50
2019-01-06T06:42:08.520Z,2.50
2019-01-06T06:45:07.532Z,2.50
2019-01-06T06:47:55.716Z,2.40
2019-01-06T06:50:44.152Z,2.50
2019-01-06T06:53:43.327Z,2.50
2019-01-06T06:56:35.847Z,2.50
2019-01-06T06:59:17.151Z,2.50
2019-01-06T07:03:07.426Z,2.50
2019-01-06T07:05:57.704Z,2.50
2019-01-06T07:08:59.261Z,2.50
2019-01-06T07:11:45.446Z,2.50
2019-01-06T07:14:53.579Z,2.50
2019-01-06T07:18:14.220Z,2.50
2019-01-06T07:21:04.680Z,2.50
2019-01-06T07:23:52.925Z,2.50
2019-01-06T07:26:53.297Z,2.50
2019-01-06T07:29:57.852Z,2.50
2019-01-06T07:32:48.282Z,2.50
2019-01-06T07:35:36.388Z,2.50
2019-01-06T07:38:19.822Z,2.50
2019-01-06T07:41:08.269Z,2.50
2019-01-06T07:43:57.793Z,2.50
2019-01-06T07:46:57.488Z,2.50
2019-01-06T07:49:47.060Z,2.50
2019-01-06T07:52:49.926Z,2.50
2019-01-06T07:55:57.981Z,2.50
2019-01-06T07:58:46.783Z,2.50
2019-01-06T08:01:50.456Z,2.50
2019-01-06T08:04:38.737Z,2.50
2019-01-06T08:07:28.360Z,2.50
2019-01-06T08:10:27.256Z,2.50
2019-01-06T08:13:35.213Z,2.50
2019-01-06T08:16:25.065Z,2.50
2019-01-06T08:19:14.928Z,2.50
2019-01-06T08:22:17.053Z,2.50
2019-01-06T08:25:07.067Z,2.50
2019-01-06T08:28:02.953Z,2.50
2019-01-06T08:30:46.822Z,2.50
2019-01-06T08:33:35.170Z,2.60
2019-01-06T08:36:22.697Z,2.60
2019-01-06T08:39:27.224Z,2.60
2019-01-06T08:42:25.830Z,2.60
2019-01-06T08:45:30.416Z,2.60
2019-01-06T08:48:28.228Z,2.60
2019-01-06T08:51:33.069Z,2.60
2019-01-06T08:54:22.661Z,2.60
2019-01-06T08:57:30.783Z,2.60
2019-01-06T09:00:19.198Z,2.60
2019-01-06T09:03:24.325Z,2.60
2019-01-06T09:06:17.000Z,2.60
2019-01-06T09:09:12.724Z,2.60
2019-01-06T09:12:12.490Z,2.60
2019-01-06T09:15:14.320Z,2.60
2019-01-06T09:18:04.419Z,2.60
2019-01-06T09:20:53.841Z,2.60
2019-01-06T09:23:34.736Z,2.60
2019-01-06T09:26:30.644Z,2.60
2019-01-06T09:29:26.443Z,2.60
2019-01-06T09:32:34.159Z,2.60
2019-01-06T09:35:26.793Z,2.70
2019-01-06T09:38:14.589Z,2.70
2019-01-06T09:41:03.068Z,2.70
2019-01-06T09:43:52.937Z,2.70
2019-01-06T09:46:41.187Z,2.70
2019-01-06T09:49:30.852Z,2.80
2019-01-06T09:52:32.536Z,2.80
2019-01-06T09:55:22.212Z,2.80
2019-01-06T09:58:11.780Z,2.80
2019-01-06T10:01:17.811Z,2.80
2019-01-06T10:04:16.080Z,2.90
2019-01-06T10:07:04.487Z,2.90
2019-01-06T10:09:54.966Z,2.90
2019-01-06T10:13:00.053Z,2.90
2019-01-06T10:16:02.010Z,2.90
2019-01-06T10:18:54.840Z,3.00
2019-01-06T10:21:51.341Z,3.00
2019-01-06T10:24:52.821Z,3.00
2019-01-06T10:27:41.843Z,3.00
2019-01-06T10:30:32.055Z,3.00
2019-01-06T10:33:21.042Z,3.00
2019-01-06T10:36:13.578Z,3.10
2019-01-06T10:38:57.591Z,3.10
2019-01-06T10:42:02.054Z,3.10
2019-01-06T10:45:03.467Z,3.10
2019-01-06T10:48:02.576Z,3.20
2019-01-06T10:51:10.618Z,3.20
2019-01-06T10:54:01.018Z,3.10
2019-01-06T10:56:56.757Z,3.20
2019-01-06T10:59:53.739Z,3.20
2019-01-06T11:02:42.499Z,3.20
2019-01-06T11:05:44.320Z,3.20
2019-01-06T11:08:35.240Z,3.20
2019-01-06T11:11:27.761Z,3.20
2019-01-06T11:14:10.304Z,3.10
2019-01-06T11:17:09.285Z,3.10
2019-01-06T11:19:59.133Z,3.10
2019-01-06T11:23:07.388Z,3.10
2019-01-06T11:25:56.196Z,3.10
2019-01-06T11:28:44.624Z,3.10
2019-01-06T11:31:33.432Z,3.10
2019-01-06T11:34:30.930Z,3.10
2019-01-06T11:37:20.693Z,3.20
2019-01-06T11:40:28.534Z,3.10
2019-01-06T11:43:27.992Z,3.10
2019-01-06T11:46:16.153Z,3.10
2019-01-06T11:49:18.051Z,3.10
2019-01-06T11:52:18.493Z,3.10
2019-01-06T11:55:07.193Z,3.10
2019-01-06T11:57:55.781Z,3.10
2019-01-06T12:00:57.825Z,3.00
2019-01-06T12:03:46.280Z,3.10
2019-01-06T12:06:34.673Z,3.10
2019-01-06T12:09:24.321Z,3.10
2019-01-06T12:12:14.717Z,3.10
2019-01-06T12:15:00.653Z,3.10
2019-01-06T12:18:04.380Z,3.00
2019-01-06T12:20:57.210Z,3.00
2019-01-06T12:23:47.064Z,3.00
2019-01-06T12:26:45.456Z,3.00
2019-01-06T12:29:41.429Z,3.00
2019-01-06T12:32:49.473Z,3.00
2019-01-06T12:35:38.553Z,3.00
2019-01-06T12:38:26.942Z,3.00
2019-01-06T12:41:15.117Z,3.00
2019-01-06T12:44:03.483Z,3.00
2019-01-06T12:46:53.421Z,3.00
2019-01-06T12:49:52.095Z,3.00
2019-01-06T12:52:40.143Z,3.00
2019-01-06T12:55:35.941Z,3.00
2019-01-06T12:58:24.147Z,3.00
2019-01-06T13:01:10.933Z,3.00
2019-01-06T13:04:15.813Z,3.00
2019-01-06T13:07:04.045Z,3.00
2019-01-06T13:10:13.312Z,2.90
2019-01-06T13:13:21.161Z,2.90
2019-01-06T13:16:13.800Z,2.90
2019-01-06T13:19:02.068Z,2.90
2019-01-06T13:21:57.799Z,2.90
2019-01-06T13:24:51.093Z,2.90
2019-01-06T13:27:50.887Z,2.90
2019-01-06T13:30:49.891Z,2.90
2019-01-06T13:33:38.403Z,2.90
2019-01-06T13:36:34.821Z,2.90
2019-01-06T13:39:40.902Z,2.90
2019-01-06T13:42:32.156Z,2.90
2019-01-06T13:45:35.268Z,2.90
2019-01-06T13:48:23.757Z,2.90
2019-01-06T13:51:05.292Z,2.90
2019-01-06T13:53:53.609Z,2.90
2019-01-06T13:56:43.587Z,2.80
2019-01-06T13:59:31.805Z,2.80
2019-01-06T14:02:39.778Z,2.80
2019-01-06T14:05:28.373Z,2.80
2019-01-06T14:08:18.260Z,2.80
2019-01-06T14:11:14.389Z,2.80
2019-01-06T14:14:02.864Z,2.80
2019-01-06T14:16:59.233Z,2.80
2019-01-06T14:19:48.134Z,2.80
2019-01-06T14:22:40.393Z,2.80
2019-01-06T14:25:25.905Z,2.80
2019-01-06T14:28:14.425Z,2.80
2019-01-06T14:31:03.935Z,2.80
2019-01-06T14:33:53.779Z,2.80
2019-01-06T14:36:42.425Z,2.80
2019-01-06T14:39:41.257Z,2.80
2019-01-06T14:42:37.191Z,2.80
2019-01-06T14:45:25.661Z,2.90
2019-01-06T14:48:14.318Z,2.90
2019-01-06T14:51:07.009Z,2.90
2019-01-06T14:53:55.276Z,2.90
2019-01-06T14:56:43.678Z,2.90
2019-01-06T14:59:48.201Z,2.90
2019-01-06T15:02:36.581Z,2.90
2019-01-06T15:05:29.474Z,2.90
2019-01-06T15:08:29.268Z,2.90
2019-01-06T15:11:21.797Z,2.90
2019-01-06T15:14:10.243Z,2.90
2019-01-06T15:17:02.914Z,2.90
2019-01-06T15:19:51.464Z,2.90
2019-01-06T15:22:39.750Z,2.90
2019-01-06T15:25:29.726Z,2.90
2019-01-06T15:28:21.303Z,2.90
2019-01-06T15:31:11.089Z,2.90
2019-01-06T15:34:00.912Z,2.90
2019-01-06T15:36:49.055Z,2.90
2019-01-06T15:39:51.961Z,2.90
2019-01-06T15:42:40.212Z,2.90
2019-01-06T15:45:29.923Z,2.90
2019-01-06T15:48:37.698Z,2.90
2019-01-06T15:51:36.389Z,2.90
2019-01-06T15:54:20.929Z,2.90
2019-01-06T15:57:18.130Z,2.90
2019-01-06T16:00:13.745Z,2.90
2019-01-06T16:03:18.932Z,2.90
2019-01-06T16:06:25.849Z,2.90
2019-01-06T16:09:20.109Z,2.90
2019-01-06T16:12:21.493Z,2.90
2019-01-06T16:15:26.744Z,2.90
2019-01-06T16:18:15.014Z,2.90
2019-01-06T16:21:20.544Z,2.90
2019-01-06T16:24:11.210Z,2.90
2019-01-06T16:27:00.789Z,2.90
2019-01-06T16:30:09.300Z,2.90
2019-01-06T16:33:08.029Z,2.90
2019-01-06T16:36:02.165Z,2.90
2019-01-06T16:38:51.895Z,2.90
2019-01-06T16:41:47.959Z,2.90
2019-01-06T16:44:36.197Z,2.90
2019-01-06T16:47:25.969Z,2.90
2019-01-06T16:50:14.157Z,2.90
2019-01-06T16:53:02.700Z,2.90
2019-01-06T16:56:05.997Z,2.90
2019-01-06T16:58:55.978Z,2.90
2019-01-06T17:01:49.923Z,3.00
2019-01-06T17:04:58.736Z,3.00
2019-01-06T17:07:47.127Z,3.00
2019-01-06T17:10:53.278Z,3.00
2019-01-06T17:14:00.957Z,3.00
2019-01-06T17:16:50.246Z,3.00
2019-01-06T17:19:55.592Z,3.00
2019-01-06T17:22:44.158Z,3.00
2019-01-06T17:25:48.867Z,3.00
2019-01-06T17:28:39.260Z,3.00
2019-01-06T17:31:45.120Z,3.00
2019-01-06T17:34:40.772Z,3.00
2019-01-06T17:37:48.988Z,3.00
2019-01-06T17:40:41.489Z,3.00
2019-01-06T17:43:30.261Z,3.00
2019-01-06T17:46:23.248Z,3.00
2019-01-06T17:49:22.396Z,3.00
2019-01-06T17:52:10.966Z,3.00
2019-01-06T17:54:59.431Z,3.00
2019-01-06T17:57:47.996Z,3.00
2019-01-06T18:00:49.432Z,3.00
2019-01-06T18:03:49.452Z,3.00
2019-01-06T18:06:46.014Z,3.00
2019-01-06T18:09:41.780Z,3.00
2019-01-06T18:12:37.461Z,3.00
2019-01-06T18:15:32.440Z,3.00
2019-01-06T18:18:24.103Z,3.00
2019-01-06T18:21:23.362Z,3.00
2019-01-06T18:24:16.037Z,3.00
2019-01-06T18:27:04.698Z,3.00
2019-01-06T18:29:54.334Z,3.00
2019-01-06T18:32:57.243Z,3.00
2019-01-06T18:35:49.891Z,3.00
2019-01-06T18:38:47.123Z,3.00
2019-01-06T18:41:53.540Z,3.00
2019-01-06T18:44:45.739Z,3.00
2019-01-06T18:47:41.443Z,3.00
2019-01-06T18:50:47.133Z,3.00
2019-01-06T18:53:36.979Z,2.90
2019-01-06T18:56:42.098Z,2.90
2019-01-06T18:59:39.509Z,2.90
2019-01-06T19:02:29.990Z,2.90
2019-01-06T19:05:18.322Z,2.90
2019-01-06T19:08:11.818Z,2.90
2019-01-06T19:11:08.516Z,2.90
2019-01-06T19:14:09.770Z,2.90
2019-01-06T19:16:58.258Z,2.90
2019-01-06T19:19:48.265Z,2.90
2019-01-06T19:22:37.298Z,2.80
2019-01-06T19:25:42.287Z,2.80
2019-01-06T19:28:43.893Z,2.80
2019-01-06T19:31:33.441Z,2.80
2019-01-06T19:34:26.496Z,2.80
2019-01-06T19:37:34.952Z,2.80
2019-01-06T19:40:27.646Z,2.80
2019-01-06T19:43:29.537Z,2.80
2019-01-06T19:46:18.380Z,2.80
2019-01-06T19:49:07.937Z,2.80
2019-01-06T19:51:52.626Z,2.80
2019-01-06T19:54:40.998Z,2.90
2019-01-06T19:57:33.859Z,2.90
2019-01-06T20:00:33.549Z,2.80
2019-01-06T20:03:15.384Z,2.80
2019-01-06T20:06:11.562Z,2.80
2019-01-06T20:09:13.262Z,2.80
2019-01-06T20:12:09.006Z,2.80
2019-01-06T20:14:57.589Z,2.80
2019-01-06T20:17:51.553Z,2.80
2019-01-06T20:20:41.297Z,2.80
2019-01-06T20:23:38.103Z,2.80
2019-01-06T20:26:25.694Z,2.80
2019-01-06T20:29:15.527Z,2.80
2019-01-06T20:32:14.351Z,2.80
2019-01-06T20:35:02.894Z,2.80
2019-01-06T20:37:49.197Z,2.80
2019-01-06T20:40:47.913Z,2.80
2019-01-06T20:43:37.909Z,2.80
2019-01-06T20:46:27.878Z,2.80
2019-01-06T20:49:16.536Z,2.80
2019-01-06T20:52:06.817Z,2.80
2019-01-06T20:54:55.131Z,2.70
2019-01-06T20:57:56.129Z,2.70
2019-01-06T21:00:58.053Z,2.70
2019-01-06T21:03:47.731Z,2.70
2019-01-06T21:06:55.671Z,2.70
2019-01-06T21:09:45.834Z,2.70
2019-01-06T21:12:46.103Z,2.70
2019-01-06T21:15:34.778Z,2.70
2019-01-06T21:18:24.589Z,2.70
2019-01-06T21:21:14.881Z,2.70
2019-01-06T21:24:14.464Z,2.70
2019-01-06T21:27:02.821Z,2.70
2019-01-06T21:29:51.330Z,2.70
2019-01-06T21:32:41.116Z,2.70
2019-01-06T21:35:36.745Z,2.80
2019-01-06T21:38:29.201Z,2.80
2019-01-06T21:41:31.448Z,2.80
2019-01-06T21:44:36.161Z,2.80
2019-01-06T21:47:22.816Z,2.80
2019-01-06T21:50:10.768Z,2.80
2019-01-06T21:53:00.693Z,2.80
2019-01-06T21:55:49.311Z,2.80
2019-01-06T21:58:49.412Z,2.80
2019-01-06T22:01:41.960Z,2.80
2019-01-06T22:04:34.415Z,2.80
2019-01-06T22:07:22.688Z,2.80
2019-01-06T22:10:15.072Z,2.80
2019-01-06T22:13:17.920Z,2.90
2019-01-06T22:16:13.840Z,2.80
2019-01-06T22:19:02.291Z,2.90
2019-01-06T22:21:57.837Z,2.90
2019-01-06T22:24:59.516Z,2.90
2019-01-06T22:27:49.348Z,2.90
2019-01-06T22:30:37.804Z,2.90
2019-01-06T22:33:30.385Z,2.90
2019-01-06T22:36:19.010Z,2.90
2019-01-06T22:39:07.616Z,2.80
2019-01-06T22:41:56.444Z,2.80
2019-01-06T22:44:46.887Z,2.70
2019-01-06T22:47:36.769Z,2.70
2019-01-06T22:50:26.525Z,2.70
2019-01-06T22:53:11.017Z,2.70
2019-01-06T22:56:02.424Z,2.70
2019-01-06T22:58:51.169Z,2.70
2019-01-06T23:01:52.443Z,2.70
2019-01-06T23:04:42.222Z,2.70
2019-01-06T23:07:44.249Z,2.70
2019-01-06T23:10:33.878Z,2.70
2019-01-06T23:13:35.568Z,2.80
2019-01-06T23:16:24.022Z,2.80
2019-01-06T23:19:13.559Z,2.80
2019-01-06T23:22:22.596Z,2.80
2019-01-06T23:25:26.833Z,2.80
2019-01-06T23:28:11.981Z,2.80
2019-01-06T23:30:55.706Z,2.80
2019-01-06T23:33:48.360Z,2.80
2019-01-06T23:36:36.825Z,2.80
2019-01-06T23:39:29.956Z,2.80
2019-01-06T23:42:25.429Z,2.80
2019-01-06T23:45:17.978Z,2.80
2019-01-06T23:48:06.456Z,2.90
2019-01-06T23:51:02.372Z,2.90
2019-01-06T23:53:52.054Z,2.90
2019-01-06T23:56:41.504Z,2.90
2019-01-06T23:59:30.868Z,2.90
